PTKR  Koror, Palau, NWS Office Airport

Add Bookmark

Federated States of Micronesia

Status
Operational
Latitude Longitude
7° 19' 48" N 134° 28' 47" E
7.330000 134.480000
Local (DST + 9) UTC (GMT + 9)
Jul 31, 2014 06:24 Jul 31, 2014 09:24
Sunrise-Sunset Local UTC
Begin Civil Twilight 05:32 20:32
Sunrise 05:54 20:54
Sunset 06:22 09:22
End Civil Twilight 06:44 09:44

Current Weather

METAR Observed VFR
PTKR 310852Z 20006KT 15SM FEW017 OVC300 29/25 A2981 Thu, Jul 31, 2014 @ 08:52 UTC
(32 Minutes ago)
Visual Flight Rules

Decoded METAR

Wind Visibility Clouds Conditions
200° at 6 knots (11 kph) 24000 meters
  • Few at 1,700' AGL
  • Overcast at 30,000' AGL
  • No significant weather
Temperatures Readings Precipitation
Current Temp 29°C (84°F)
Dewpoint 25°C (77°F)
Heat Index 34°C (94°F)
Humidity 79%
Altimeter 29.81"Hg
Sea Level Pressure 1009.6mb
Field Elevation 98.43'
None Recorded

Additional weather within a 92.6km radius of PTKR

Map ICAO Location
PTRO 8.1km N (360°)

24 Hour Weather History

Loading
-

24 Hour Weather Graphs

Loading
-

CheckWX.com is intended as a tool to help pilots better visualize weather data. It is not intended as a substitute for an official weather briefing obtained from a Flight Service Station. CheckWX.com does not meet the FAA requirements for an official pre-flight weather briefing. Therefore, it's important that pilots still call and obtain an official FSS pre-flight weather briefing.